Wednesday 22nd November 2017 - KPAO 222347Z 32009KT 8SM BKN180 20/14 A3007

Resource Scheduler

Schedule your next flight here with the club aircraft scheduler. Club login information required.

Events

Advantage Aviation club members share a passion for flying. Our events include group flying trips, seminars, classes, and even the occasional BBQ!

Weather Links

Before you fly with us, confirm flight planning, weather and news. Here you will find links to various information sources to help you plan a safe, enjoyable flight.

Accomplishments

We are proud of our member’s flying achievements. Check out the latest milestones from our students and instructors, and get inspired to take your next step!

Forms & Downloads

Access and download membership application and flight forms on our site.

Advantage Store

Purchase Advantage Aviation branded apparel online here.

Advantage Aviation